sensor_id;sensor_type;location;lat;lon;timestamp;pressure;altitude;pressure_sealevel;temperature;humidity
39243;BME280;29823;47.404;8.566;2023-02-28T00:01:28;96718.22;;;0.05;100.00
39243;BME280;29823;47.404;8.566;2023-02-28T00:03:58;96721.84;;;-0.04;100.00
39243;BME280;29823;47.404;8.566;2023-02-28T00:06:26;96723.00;;;-0.07;100.00
39243;BME280;29823;47.404;8.566;2023-02-28T00:08:54;96722.66;;;-0.04;100.00
39243;BME280;29823;47.404;8.566;2023-02-28T00:11:22;96723.97;;;0.00;100.00
39243;BME280;29823;47.404;8.566;2023-02-28T00:13:50;96712.78;;;-0.17;100.00
39243;BME280;29823;47.404;8.566;2023-02-28T00:16:19;96731.38;;;-0.03;100.00
39243;BME280;29823;47.404;8.566;2023-02-28T00:18:48;96710.00;;;-0.16;100.00
39243;BME280;29823;47.404;8.566;2023-02-28T00:21:19;96704.59;;;-0.07;100.00
39243;BME280;29823;47.404;8.566;2023-02-28T00:23:47;96708.81;;;-0.14;100.00
39243;BME280;29823;47.404;8.566;2023-02-28T00:26:15;96717.88;;;-0.08;100.00
39243;BME280;29823;47.404;8.566;2023-02-28T00:28:46;96701.94;;;-0.15;100.00
39243;BME280;29823;47.404;8.566;2023-02-28T00:31:14;96717.06;;;-0.09;100.00
39243;BME280;29823;47.404;8.566;2023-02-28T00:33:42;96720.50;;;-0.08;100.00
39243;BME280;29823;47.404;8.566;2023-02-28T00:36:11;96713.13;;;-0.13;100.00
39243;BME280;29823;47.404;8.566;2023-02-28T00:38:40;96716.44;;;-0.03;100.00
39243;BME280;29823;47.404;8.566;2023-02-28T00:41:09;96713.47;;;-0.08;100.00
39243;BME280;29823;47.404;8.566;2023-02-28T00:43:38;96717.06;;;-0.09;100.00
39243;BME280;29823;47.404;8.566;2023-02-28T00:46:07;96716.41;;;-0.11;100.00
39243;BME280;29823;47.404;8.566;2023-02-28T00:48:35;96718.88;;;-0.09;100.00
39243;BME280;29823;47.404;8.566;2023-02-28T00:51:04;96717.72;;;-0.07;100.00
39243;BME280;29823;47.404;8.566;2023-02-28T00:53:32;96714.41;;;-0.09;100.00
39243;BME280;29823;47.404;8.566;2023-02-28T00:56:02;96719.22;;;0.04;100.00
39243;BME280;29823;47.404;8.566;2023-02-28T00:58:31;96726.44;;;0.02;100.00
39243;BME280;29823;47.404;8.566;2023-02-28T01:00:59;96705.06;;;-0.19;100.00
39243;BME280;29823;47.404;8.566;2023-02-28T01:03:27;96724.94;;;-0.17;100.00
39243;BME280;29823;47.404;8.566;2023-02-28T01:05:55;96717.00;;;-0.25;100.00
39243;BME280;29823;47.404;8.566;2023-02-28T01:08:23;96722.66;;;-0.04;100.00
39243;BME280;29823;47.404;8.566;2023-02-28T01:10:50;96720.84;;;-0.03;100.00
39243;BME280;29823;47.404;8.566;2023-02-28T01:13:20;96718.88;;;-0.01;100.00
39243;BME280;29823;47.404;8.566;2023-02-28T01:15:51;96709.66;;;-0.13;100.00
39243;BME280;29823;47.404;8.566;2023-02-28T01:18:19;96720.69;;;-0.02;100.00
39243;BME280;29823;47.404;8.566;2023-02-28T01:20:47;96719.06;;;0.05;100.00
39243;BME280;29823;47.404;8.566;2023-02-28T01:23:15;96718.22;;;0.05;100.00
39243;BME280;29823;47.404;8.566;2023-02-28T01:25:43;96711.03;;;0.07;100.00
39243;BME280;29823;47.404;8.566;2023-02-28T01:28:11;96717.09;;;0.07;100.00
39243;BME280;29823;47.404;8.566;2023-02-28T01:30:40;96721.03;;;0.03;100.00
39243;BME280;29823;47.404;8.566;2023-02-28T01:33:08;96712.81;;;-0.02;100.00
39243;BME280;29823;47.404;8.566;2023-02-28T01:35:36;96713.63;;;-0.01;100.00
39243;BME280;29823;47.404;8.566;2023-02-28T01:38:04;96710.53;;;0.03;100.00
39243;BME280;29823;47.404;8.566;2023-02-28T01:40:47;96720.69;;;0.06;100.00
39243;BME280;29823;47.404;8.566;2023-02-28T01:43:20;96713.63;;;-0.01;100.00
39243;BME280;29823;47.404;8.566;2023-02-28T01:45:50;96714.63;;;0.06;100.00
39243;BME280;29823;47.404;8.566;2023-02-28T01:48:19;96716.13;;;0.08;100.00
39243;BME280;29823;47.404;8.566;2023-02-28T01:50:49;96715.28;;;0.00;100.00
39243;BME280;29823;47.404;8.566;2023-02-28T01:53:19;96718.38;;;-0.13;100.00
39243;BME280;29823;47.404;8.566;2023-02-28T01:55:50;96717.09;;;0.07;100.00
39243;BME280;29823;47.404;8.566;2023-02-28T01:58:20;96724.47;;;-0.04;100.00
39243;BME280;29823;47.404;8.566;2023-02-28T02:00:49;96723.31;;;-0.02;100.00
39243;BME280;29823;47.404;8.566;2023-02-28T02:03:19;96703.94;;;-0.01;100.00
39243;BME280;29823;47.404;8.566;2023-02-28T02:05:47;96708.84;;;0.02;100.00
39243;BME280;29823;47.404;8.566;2023-02-28T02:08:18;96708.84;;;0.02;100.00
39243;BME280;29823;47.404;8.566;2023-02-28T02:10:49;96711.81;;;0.07;100.00
39243;BME280;29823;47.404;8.566;2023-02-28T02:13:35;96699.69;;;0.14;100.00
39243;BME280;29823;47.404;8.566;2023-02-28T02:16:13;96697.19;;;-0.03;100.00
39243;BME280;29823;47.404;8.566;2023-02-28T02:18:47;96703.75;;;-0.15;100.00
39243;BME280;29823;47.404;8.566;2023-02-28T02:21:36;96690.19;;;0.13;100.00
39243;BME280;29823;47.404;8.566;2023-02-28T02:24:59;96689.66;;;0.10;100.00
39243;BME280;29823;47.404;8.566;2023-02-28T02:27:48;96698.69;;;0.07;100.00
39243;BME280;29823;47.404;8.566;2023-02-28T02:30:45;96683.91;;;0.06;100.00
39243;BME280;29823;47.404;8.566;2023-02-28T02:33:42;96689.00;;;0.08;100.00
39243;BME280;29823;47.404;8.566;2023-02-28T02:36:22;96689.00;;;0.00;100.00
39243;BME280;29823;47.404;8.566;2023-02-28T02:38:55;96687.03;;;0.02;100.00
39243;BME280;29823;47.404;8.566;2023-02-28T02:41:33;96682.44;;;-0.04;100.00
39243;BME280;29823;47.404;8.566;2023-02-28T02:44:05;96686.84;;;-0.13;100.00
39243;BME280;29823;47.404;8.566;2023-02-28T02:46:40;96687.19;;;-0.08;100.00
39243;BME280;29823;47.404;8.566;2023-02-28T02:49:12;96690.81;;;-0.01;100.00
39243;BME280;29823;47.404;8.566;2023-02-28T02:51:46;96688.16;;;-0.09;100.00
39243;BME280;29823;47.404;8.566;2023-02-28T02:54:15;96689.16;;;-0.02;100.00
39243;BME280;29823;47.404;8.566;2023-02-28T02:56:47;96674.19;;;-0.25;100.00
39243;BME280;29823;47.404;8.566;2023-02-28T02:59:18;96676.84;;;-0.09;100.00
39243;BME280;29823;47.404;8.566;2023-02-28T03:01:50;96683.06;;;-0.10;100.00
39243;BME280;29823;47.404;8.566;2023-02-28T03:04:20;96690.16;;;-0.03;100.00
39243;BME280;29823;47.404;8.566;2023-02-28T03:06:51;96685.22;;;-0.06;100.00
39243;BME280;29823;47.404;8.566;2023-02-28T03:09:21;96671.72;;;-0.11;100.00
39243;BME280;29823;47.404;8.566;2023-02-28T03:11:49;96679.94;;;0.02;100.00
39243;BME280;29823;47.404;8.566;2023-02-28T03:14:27;96671.41;;;-0.08;100.00
39243;BME280;29823;47.404;8.566;2023-02-28T03:17:10;96674.03;;;0.00;100.00
39243;BME280;29823;47.404;8.566;2023-02-28T03:19:46;96675.00;;;-0.09;100.00
39243;BME280;29823;47.404;8.566;2023-02-28T03:22:23;96674.38;;;0.05;100.00
39243;BME280;29823;47.404;8.566;2023-02-28T03:25:01;96679.63;;;0.05;100.00
39243;BME280;29823;47.404;8.566;2023-02-28T03:27:38;96677.19;;;0.12;100.00
39243;BME280;29823;47.404;8.566;2023-02-28T03:30:10;96674.06;;;-0.08;100.00
39243;BME280;29823;47.404;8.566;2023-02-28T03:32:46;96677.97;;;-0.04;100.00
39243;BME280;29823;47.404;8.566;2023-02-28T03:35:21;96683.09;;;0.06;100.00
39243;BME280;29823;47.404;8.566;2023-02-28T03:37:53;96683.88;;;-0.10;100.00
39243;BME280;29823;47.404;8.566;2023-02-28T03:40:22;96690.47;;;-0.06;100.00
39243;BME280;29823;47.404;8.566;2023-02-28T03:42:55;96687.50;;;-0.11;100.00
39243;BME280;29823;47.404;8.566;2023-02-28T03:45:30;96694.41;;;0.06;100.00
39243;BME280;29823;47.404;8.566;2023-02-28T03:48:02;96680.78;;;-0.05;100.00
39243;BME280;29823;47.404;8.566;2023-02-28T03:50:35;96693.91;;;-0.21;100.00
39243;BME280;29823;47.404;8.566;2023-02-28T03:53:07;96694.88;;;-0.06;100.00
39243;BME280;29823;47.404;8.566;2023-02-28T03:55:39;96687.53;;;-0.03;100.00
39243;BME280;29823;47.404;8.566;2023-02-28T03:58:15;96682.69;;;-0.23;100.00
39243;BME280;29823;47.404;8.566;2023-02-28T04:00:47;96689.75;;;-0.32;100.00
39243;BME280;29823;47.404;8.566;2023-02-28T04:03:17;96688.13;;;-0.25;100.00
39243;BME280;29823;47.404;8.566;2023-02-28T04:05:50;96683.03;;;-0.26;100.00
39243;BME280;29823;47.404;8.566;2023-02-28T04:08:21;96696.03;;;-0.09;100.00
39243;BME280;29823;47.404;8.566;2023-02-28T04:10:54;96695.03;;;-0.16;100.00
39243;BME280;29823;47.404;8.566;2023-02-28T04:13:23;96690.59;;;-0.23;100.00
39243;BME280;29823;47.404;8.566;2023-02-28T04:15:51;96692.44;;;-0.08;100.00
39243;BME280;29823;47.404;8.566;2023-02-28T04:18:19;96695.72;;;-0.06;100.00
39243;BME280;29823;47.404;8.566;2023-02-28T04:20:47;96701.94;;;-0.15;100.00
39243;BME280;29823;47.404;8.566;2023-02-28T04:23:15;96700.28;;;-0.16;100.00
39243;BME280;29823;47.404;8.566;2023-02-28T04:25:44;96707.53;;;-0.17;100.00
39243;BME280;29823;47.404;8.566;2023-02-28T04:28:12;96716.44;;;-0.03;100.00
39243;BME280;29823;47.404;8.566;2023-02-28T04:30:40;96718.03;;;-0.10;100.00
39243;BME280;29823;47.404;8.566;2023-02-28T04:33:07;96719.03;;;-0.11;100.00
39243;BME280;29823;47.404;8.566;2023-02-28T04:35:35;96715.41;;;-0.10;100.00
39243;BME280;29823;47.404;8.566;2023-02-28T04:38:03;96697.81;;;-0.17;100.00
39243;BME280;29823;47.404;8.566;2023-02-28T04:40:31;96695.00;;;-0.32;100.00
39243;BME280;29823;47.404;8.566;2023-02-28T04:43:00;96717.53;;;-0.21;100.00
39243;BME280;29823;47.404;8.566;2023-02-28T04:45:28;96712.09;;;-0.28;100.00
39243;BME280;29823;47.404;8.566;2023-02-28T04:47:58;96708.19;;;-0.16;100.00
39243;BME280;29823;47.404;8.566;2023-02-28T04:50:26;96719.34;;;-0.14;100.00
39243;BME280;29823;47.404;8.566;2023-02-28T04:52:54;96724.28;;;-0.11;100.00
39243;BME280;29823;47.404;8.566;2023-02-28T04:55:22;96723.28;;;-0.17;100.00
39243;BME280;29823;47.404;8.566;2023-02-28T04:57:49;96726.03;;;-0.27;100.00
39243;BME280;29823;47.404;8.566;2023-02-28T05:00:19;96719.34;;;-0.14;100.00
39243;BME280;29823;47.404;8.566;2023-02-28T05:02:47;96715.09;;;-0.07;100.00
39243;BME280;29823;47.404;8.566;2023-02-28T05:05:15;96726.75;;;-0.09;100.00
39243;BME280;29823;47.404;8.566;2023-02-28T05:07:44;96723.28;;;-0.10;100.00
39243;BME280;29823;47.404;8.566;2023-02-28T05:10:12;96727.22;;;-0.22;100.00
39243;BME280;29823;47.404;8.566;2023-02-28T05:12:40;96727.91;;;-0.12;100.00
39243;BME280;29823;47.404;8.566;2023-02-28T05:15:12;96725.28;;;-0.04;100.00
39243;BME280;29823;47.404;8.566;2023-02-28T05:17:42;96732.00;;;-0.09;100.00
39243;BME280;29823;47.404;8.566;2023-02-28T05:20:11;96745.66;;;-0.06;100.00
39243;BME280;29823;47.404;8.566;2023-02-28T05:22:42;96739.34;;;-0.21;100.00
39243;BME280;29823;47.404;8.566;2023-02-28T05:25:12;96739.69;;;-0.23;100.00
39243;BME280;29823;47.404;8.566;2023-02-28T05:27:41;96743.63;;;-0.20;100.00
39243;BME280;29823;47.404;8.566;2023-02-28T05:30:10;96738.88;;;-0.24;100.00
39243;BME280;29823;47.404;8.566;2023-02-28T05:32:39;96733.81;;;-0.17;100.00
39243;BME280;29823;47.404;8.566;2023-02-28T05:35:11;96738.56;;;-0.13;100.00
39243;BME280;29823;47.404;8.566;2023-02-28T05:37:39;96721.47;;;-0.17;100.00
39243;BME280;29823;47.404;8.566;2023-02-28T05:40:08;96732.50;;;-0.06;100.00
39243;BME280;29823;47.404;8.566;2023-02-28T05:42:37;96734.50;;;0.00;100.00
39243;BME280;29823;47.404;8.566;2023-02-28T05:45:07;96727.59;;;-0.01;100.00
39243;BME280;29823;47.404;8.566;2023-02-28T05:47:35;96728.88;;;-0.13;100.00
39243;BME280;29823;47.404;8.566;2023-02-28T05:50:04;96740.09;;;-0.03;100.00
39243;BME280;29823;47.404;8.566;2023-02-28T05:52:33;96741.34;;;-0.22;100.00
39243;BME280;29823;47.404;8.566;2023-02-28T05:55:01;96743.66;;;-0.12;100.00
39243;BME280;29823;47.404;8.566;2023-02-28T05:57:29;96748.38;;;-0.23;100.00
39243;BME280;29823;47.404;8.566;2023-02-28T05:59:57;96745.75;;;-0.31;100.00
39243;BME280;29823;47.404;8.566;2023-02-28T06:02:25;96748.22;;;-0.22;100.00
39243;BME280;29823;47.404;8.566;2023-02-28T06:04:53;96740.00;;;-0.27;100.00
39243;BME280;29823;47.404;8.566;2023-02-28T06:07:21;96748.88;;;-0.20;100.00
39243;BME280;29823;47.404;8.566;2023-02-28T06:09:51;96752.50;;;-0.21;100.00
39243;BME280;29823;47.404;8.566;2023-02-28T06:12:19;96749.84;;;-0.28;100.00
39243;BME280;29823;47.404;8.566;2023-02-28T06:14:46;96758.53;;;-0.28;100.00
39243;BME280;29823;47.404;8.566;2023-02-28T06:17:14;96758.75;;;-0.22;100.00
39243;BME280;29823;47.404;8.566;2023-02-28T06:19:42;96754.13;;;-0.28;100.00
39243;BME280;29823;47.404;8.566;2023-02-28T06:22:10;96752.78;;;-0.32;100.00
39243;BME280;29823;47.404;8.566;2023-02-28T06:24:37;96759.25;;;-0.18;100.00
39243;BME280;29823;47.404;8.566;2023-02-28T06:27:07;96767.41;;;-0.29;100.00
39243;BME280;29823;47.404;8.566;2023-02-28T06:29:35;96776.97;;;-0.20;100.00
39243;BME280;29823;47.404;8.566;2023-02-28T06:32:06;96772.84;;;-0.22;100.00
39243;BME280;29823;47.404;8.566;2023-02-28T06:34:34;96781.75;;;-0.16;100.00
39243;BME280;29823;47.404;8.566;2023-02-28T06:37:02;96782.72;;;-0.17;100.00
39243;BME280;29823;47.404;8.566;2023-02-28T06:39:30;96780.41;;;-0.20;100.00
39243;BME280;29823;47.404;8.566;2023-02-28T06:41:58;96785.72;;;-0.12;100.00
39243;BME280;29823;47.404;8.566;2023-02-28T06:44:27;96780.44;;;-0.12;100.00
39243;BME280;29823;47.404;8.566;2023-02-28T06:47:02;96784.88;;;-0.12;100.00
39243;BME280;29823;47.404;8.566;2023-02-28T06:49:31;96797.84;;;-0.18;100.00
39243;BME280;29823;47.404;8.566;2023-02-28T06:51:59;96797.22;;;-0.13;100.00
39243;BME280;29823;47.404;8.566;2023-02-28T06:54:27;96803.25;;;-0.20;100.00
39243;BME280;29823;47.404;8.566;2023-02-28T06:56:55;96798.84;;;-0.12;100.00
39243;BME280;29823;47.404;8.566;2023-02-28T06:59:22;96805.38;;;-0.23;100.00
39243;BME280;29823;47.404;8.566;2023-02-28T07:01:51;96807.03;;;-0.15;100.00
39243;BME280;29823;47.404;8.566;2023-02-28T07:04:19;96799.47;;;-0.17;100.00
39243;BME280;29823;47.404;8.566;2023-02-28T07:06:47;96807.44;;;-0.02;100.00
39243;BME280;29823;47.404;8.566;2023-02-28T07:09:15;96813.88;;;-0.29;100.00
39243;BME280;29823;47.404;8.566;2023-02-28T07:11:43;96815.69;;;-0.22;100.00
39243;BME280;29823;47.404;8.566;2023-02-28T07:14:11;96815.41;;;-0.19;100.00
39243;BME280;29823;47.404;8.566;2023-02-28T07:16:39;96811.84;;;-0.02;100.00
39243;BME280;29823;47.404;8.566;2023-02-28T07:19:08;96810.72;;;0.00;100.00
39243;BME280;29823;47.404;8.566;2023-02-28T07:21:35;96807.78;;;0.11;100.00
39243;BME280;29823;47.404;8.566;2023-02-28T07:24:04;96815.22;;;0.24;100.00
39243;BME280;29823;47.404;8.566;2023-02-28T07:26:32;96812.03;;;0.04;100.00
39243;BME280;29823;47.404;8.566;2023-02-28T07:29:00;96816.34;;;0.13;100.00
39243;BME280;29823;47.404;8.566;2023-02-28T07:31:28;96811.09;;;0.21;100.00
39243;BME280;29823;47.404;8.566;2023-02-28T07:33:56;96812.13;;;0.36;100.00
39243;BME280;29823;47.404;8.566;2023-02-28T07:36:26;96810.84;;;0.48;100.00
39243;BME280;29823;47.404;8.566;2023-02-28T07:38:54;96818.41;;;0.51;100.00
39243;BME280;29823;47.404;8.566;2023-02-28T07:41:22;96814.28;;;0.41;100.00
39243;BME280;29823;47.404;8.566;2023-02-28T07:43:54;96813.75;;;0.29;100.00
39243;BME280;29823;47.404;8.566;2023-02-28T07:46:23;96828.56;;;0.38;100.00
39243;BME280;29823;47.404;8.566;2023-02-28T07:48:53;96824.25;;;0.21;100.00
39243;BME280;29823;47.404;8.566;2023-02-28T07:51:22;96817.34;;;0.20;100.00
39243;BME280;29823;47.404;8.566;2023-02-28T07:53:51;96822.94;;;0.25;100.00
39243;BME280;29823;47.404;8.566;2023-02-28T07:56:19;96831.84;;;0.24;100.00
39243;BME280;29823;47.404;8.566;2023-02-28T07:58:47;96832.44;;;0.10;100.00
39243;BME280;29823;47.404;8.566;2023-02-28T08:01:14;96836.25;;;0.24;100.00
39243;BME280;29823;47.404;8.566;2023-02-28T08:03:43;96838.88;;;0.32;100.00
39243;BME280;29823;47.404;8.566;2023-02-28T08:06:17;96830.16;;;0.15;100.00
39243;BME280;29823;47.404;8.566;2023-02-28T08:08:45;96838.88;;;0.32;100.00
39243;BME280;29823;47.404;8.566;2023-02-28T08:11:15;96845.03;;;0.40;100.00
39243;BME280;29823;47.404;8.566;2023-02-28T08:13:44;96837.97;;;0.49;100.00
39243;BME280;29823;47.404;8.566;2023-02-28T08:16:13;96844.38;;;0.46;100.00
39243;BME280;29823;47.404;8.566;2023-02-28T08:18:44;96840.75;;;0.47;100.00
39243;BME280;29823;47.404;8.566;2023-02-28T08:21:11;96845.84;;;0.57;100.00
39243;BME280;29823;47.404;8.566;2023-02-28T08:23:39;96847.84;;;0.55;100.00
39243;BME280;29823;47.404;8.566;2023-02-28T08:26:07;96844.63;;;0.27;100.00
39243;BME280;29823;47.404;8.566;2023-02-28T08:28:36;96841.09;;;0.60;100.00
39243;BME280;29823;47.404;8.566;2023-02-28T08:31:07;96839.16;;;0.62;100.00
39243;BME280;29823;47.404;8.566;2023-02-28T08:33:36;96840.31;;;0.76;100.00
39243;BME280;29823;47.404;8.566;2023-02-28T08:36:07;96829.28;;;0.64;100.00
39243;BME280;29823;47.404;8.566;2023-02-28T08:38:35;96827.47;;;0.65;100.00
39243;BME280;29823;47.404;8.566;2023-02-28T08:41:04;96837.94;;;0.41;100.00
39243;BME280;29823;47.404;8.566;2023-02-28T08:43:35;96838.31;;;0.62;100.00
39243;BME280;29823;47.404;8.566;2023-02-28T08:46:04;96833.50;;;0.49;100.00
39243;BME280;29823;47.404;8.566;2023-02-28T08:48:34;96838.81;;;0.65;100.00
39243;BME280;29823;47.404;8.566;2023-02-28T08:51:05;96840.81;;;0.79;100.00
39243;BME280;29823;47.404;8.566;2023-02-28T08:53:34;96842.28;;;0.66;100.00
39243;BME280;29823;47.404;8.566;2023-02-28T08:56:04;96839.97;;;0.79;100.00
39243;BME280;29823;47.404;8.566;2023-02-28T08:58:33;96850.69;;;0.85;100.00
39243;BME280;29823;47.404;8.566;2023-02-28T09:01:09;96856.13;;;0.92;100.00
39243;BME280;29823;47.404;8.566;2023-02-28T09:03:38;96850.84;;;0.84;100.00
39243;BME280;29823;47.404;8.566;2023-02-28T09:06:08;96863.34;;;0.82;100.00
39243;BME280;29823;47.404;8.566;2023-02-28T09:08:36;96866.72;;;0.42;100.00
39243;BME280;29823;47.404;8.566;2023-02-28T09:11:05;96870.22;;;0.75;100.00
39243;BME280;29823;47.404;8.566;2023-02-28T09:13:33;96870.38;;;0.57;100.00
39243;BME280;29823;47.404;8.566;2023-02-28T09:16:02;96856.28;;;1.06;100.00
39243;BME280;29823;47.404;8.566;2023-02-28T09:18:33;96863.19;;;1.07;100.00
39243;BME280;29823;47.404;8.566;2023-02-28T09:21:03;96861.88;;;0.95;100.00
39243;BME280;29823;47.404;8.566;2023-02-28T09:23:31;96864.19;;;1.06;100.00
39243;BME280;29823;47.404;8.566;2023-02-28T09:25:59;96855.59;;;0.88;100.00
39243;BME280;29823;47.404;8.566;2023-02-28T09:28:27;96861.22;;;1.17;100.00
39243;BME280;29823;47.404;8.566;2023-02-28T09:30:55;96865.81;;;0.91;100.00
39243;BME280;29823;47.404;8.566;2023-02-28T09:33:24;96872.03;;;0.74;100.00
39243;BME280;29823;47.404;8.566;2023-02-28T09:35:59;96873.41;;;1.10;100.00
39243;BME280;29823;47.404;8.566;2023-02-28T09:38:28;96857.41;;;1.28;100.00
39243;BME280;29823;47.404;8.566;2023-02-28T09:40:57;96873.69;;;1.47;100.00
39243;BME280;29823;47.404;8.566;2023-02-28T09:43:28;96871.88;;;1.40;100.00
39243;BME280;29823;47.404;8.566;2023-02-28T09:46:00;96875.38;;;1.48;99.34
39243;BME280;29823;47.404;8.566;2023-02-28T09:48:32;96880.78;;;1.63;97.94
39243;BME280;29823;47.404;8.566;2023-02-28T09:51:14;96879.97;;;1.38;98.97
39243;BME280;29823;47.404;8.566;2023-02-28T09:53:43;96882.59;;;0.98;100.00
39243;BME280;29823;47.404;8.566;2023-02-28T09:56:21;96863.38;;;1.14;100.00
39243;BME280;29823;47.404;8.566;2023-02-28T09:58:55;96874.22;;;1.19;100.00
39243;BME280;29823;47.404;8.566;2023-02-28T10:01:30;96876.34;;;1.23;100.00
39243;BME280;29823;47.404;8.566;2023-02-28T10:04:03;96878.84;;;1.25;100.00
39243;BME280;29823;47.404;8.566;2023-02-28T10:06:41;96880.94;;;1.45;98.71
39243;BME280;29823;47.404;8.566;2023-02-28T10:09:15;96881.28;;;1.26;99.65
39243;BME280;29823;47.404;8.566;2023-02-28T10:11:47;96879.31;;;1.28;100.00
39243;BME280;29823;47.404;8.566;2023-02-28T10:14:22;96889.81;;;1.52;100.00
39243;BME280;29823;47.404;8.566;2023-02-28T10:16:53;96884.88;;;1.57;99.66
39243;BME280;29823;47.404;8.566;2023-02-28T10:19:26;96888.88;;;1.37;100.00
39243;BME280;29823;47.404;8.566;2023-02-28T10:22:03;96894.63;;;1.57;100.00
39243;BME280;29823;47.404;8.566;2023-02-28T10:24:35;96885.97;;;1.95;99.74
39243;BME280;29823;47.404;8.566;2023-02-28T10:27:13;96890.44;;;1.86;97.80
39243;BME280;29823;47.404;8.566;2023-02-28T10:29:44;96887.00;;;1.78;94.98
39243;BME280;29823;47.404;8.566;2023-02-28T10:32:15;96899.66;;;1.82;94.83
39243;BME280;29823;47.404;8.566;2023-02-28T10:34:44;96892.06;;;1.95;96.72
39243;BME280;29823;47.404;8.566;2023-02-28T10:37:14;96894.72;;;1.79;95.51
39243;BME280;29823;47.404;8.566;2023-02-28T10:39:44;96902.50;;;1.73;96.45
39243;BME280;29823;47.404;8.566;2023-02-28T10:42:21;96904.22;;;2.04;96.60
39243;BME280;29823;47.404;8.566;2023-02-28T10:45:06;96898.47;;;2.01;95.70
39243;BME280;29823;47.404;8.566;2023-02-28T10:47:35;96904.94;;;1.82;94.19
39243;BME280;29823;47.404;8.566;2023-02-28T10:50:08;96902.81;;;1.78;96.51
39243;BME280;29823;47.404;8.566;2023-02-28T10:52:57;96904.22;;;2.04;94.24
39243;BME280;29823;47.404;8.566;2023-02-28T10:55:32;96902.59;;;2.03;94.34
39243;BME280;29823;47.404;8.566;2023-02-28T10:58:00;96911.72;;;2.31;91.00
39243;BME280;29823;47.404;8.566;2023-02-28T11:00:32;96911.81;;;1.99;92.87
39243;BME280;29823;47.404;8.566;2023-02-28T11:03:01;96911.09;;;1.51;95.68
39243;BME280;29823;47.404;8.566;2023-02-28T11:05:30;96912.97;;;1.97;93.48
39243;BME280;29823;47.404;8.566;2023-02-28T11:08:06;96913.47;;;2.08;95.15
39243;BME280;29823;47.404;8.566;2023-02-28T11:10:38;96918.38;;;2.19;91.77
39243;BME280;29823;47.404;8.566;2023-02-28T11:13:06;96901.69;;;1.64;93.13
39243;BME280;29823;47.404;8.566;2023-02-28T11:15:34;96906.91;;;1.80;95.72
39243;BME280;29823;47.404;8.566;2023-02-28T11:18:19;96897.59;;;2.24;93.92
39243;BME280;29823;47.404;8.566;2023-02-28T11:20:50;96907.53;;;2.45;90.07
39243;BME280;29823;47.404;8.566;2023-02-28T11:23:20;96899.44;;;2.16;92.42
39243;BME280;29823;47.404;8.566;2023-02-28T11:25:50;96906.00;;;2.58;90.74
39243;BME280;29823;47.404;8.566;2023-02-28T11:28:26;96912.34;;;1.87;94.65
39243;BME280;29823;47.404;8.566;2023-02-28T11:31:04;96912.78;;;2.14;94.60
39243;BME280;29823;47.404;8.566;2023-02-28T11:33:40;96915.03;;;2.25;94.25
39243;BME280;29823;47.404;8.566;2023-02-28T11:36:12;96911.19;;;1.89;94.16
39243;BME280;29823;47.404;8.566;2023-02-28T11:38:42;96914.66;;;1.82;94.96
39243;BME280;29823;47.404;8.566;2023-02-28T11:41:21;96905.91;;;1.97;95.05
39243;BME280;29823;47.404;8.566;2023-02-28T11:43:55;96916.47;;;1.89;94.73
39243;BME280;29823;47.404;8.566;2023-02-28T11:46:30;96921.09;;;1.87;96.17
39243;BME280;29823;47.404;8.566;2023-02-28T11:49:10;96911.19;;;1.89;94.75
39243;BME280;29823;47.404;8.566;2023-02-28T11:51:49;96900.22;;;2.24;93.66
39243;BME280;29823;47.404;8.566;2023-02-28T11:54:50;96906.91;;;2.35;92.24
39243;BME280;29823;47.404;8.566;2023-02-28T11:57:44;96914.06;;;2.26;93.75
39243;BME280;29823;47.404;8.566;2023-02-28T12:03:26;96897.81;;;2.45;90.94
39243;BME280;29823;47.404;8.566;2023-02-28T12:06:01;96903.53;;;2.87;89.39
39243;BME280;29823;47.404;8.566;2023-02-28T12:08:47;96902.16;;;2.99;87.53
39243;BME280;29823;47.404;8.566;2023-02-28T12:11:29;96905.66;;;2.92;86.17
39243;BME280;29823;47.404;8.566;2023-02-28T12:17:02;96892.16;;;2.56;88.94
39243;BME280;29823;47.404;8.566;2023-02-28T12:19:39;96898.69;;;2.68;87.79
39243;BME280;29823;47.404;8.566;2023-02-28T12:22:32;96887.28;;;2.37;89.49
39243;BME280;29823;47.404;8.566;2023-02-28T12:25:22;96881.50;;;1.95;92.27
39243;BME280;29823;47.404;8.566;2023-02-28T12:27:53;96891.63;;;2.30;91.14
39243;BME280;29823;47.404;8.566;2023-02-28T12:30:23;96904.19;;;2.20;92.09
39243;BME280;29823;47.404;8.566;2023-02-28T12:32:55;96904.63;;;1.69;95.03
39243;BME280;29823;47.404;8.566;2023-02-28T12:35:27;96895.41;;;1.81;95.75
39243;BME280;29823;47.404;8.566;2023-02-28T12:38:04;96898.97;;;1.96;92.98
39243;BME280;29823;47.404;8.566;2023-02-28T12:40:42;96899.34;;;1.77;93.68
39243;BME280;29823;47.404;8.566;2023-02-28T12:43:16;96898.81;;;1.98;95.55
39243;BME280;29823;47.404;8.566;2023-02-28T12:45:48;96904.50;;;2.17;93.55
39243;BME280;29823;47.404;8.566;2023-02-28T12:48:20;96903.56;;;2.10;93.09
39243;BME280;29823;47.404;8.566;2023-02-28T12:50:49;96901.03;;;2.25;93.23
39243;BME280;29823;47.404;8.566;2023-02-28T12:53:23;96904.88;;;2.14;94.03
39243;BME280;29823;47.404;8.566;2023-02-28T12:56:03;96898.97;;;2.04;95.38
39243;BME280;29823;47.404;8.566;2023-02-28T12:58:38;96891.97;;;1.65;96.85
39243;BME280;29823;47.404;8.566;2023-02-28T13:01:30;96901.31;;;1.91;94.86
39243;BME280;29823;47.404;8.566;2023-02-28T13:10:10;96902.97;;;1.76;98.12
39243;BME280;29823;47.404;8.566;2023-02-28T13:12:47;96899.63;;;1.98;94.44
39243;BME280;29823;47.404;8.566;2023-02-28T13:15:20;96888.38;;;2.12;94.36
39243;BME280;29823;47.404;8.566;2023-02-28T13:17:52;96890.53;;;2.09;94.02
39243;BME280;29823;47.404;8.566;2023-02-28T13:20:23;96892.22;;;2.02;93.87
39243;BME280;29823;47.404;8.566;2023-02-28T13:22:52;96893.00;;;2.10;94.08
39243;BME280;29823;47.404;8.566;2023-02-28T13:31:32;96896.72;;;1.69;96.93
39243;BME280;29823;47.404;8.566;2023-02-28T13:34:15;96894.59;;;1.73;97.58
39243;BME280;29823;47.404;8.566;2023-02-28T13:36:43;96893.28;;;1.61;96.85
39243;BME280;29823;47.404;8.566;2023-02-28T13:39:46;96888.44;;;1.80;98.03